Orlandia, Brazil
Current Conditions -  °F | °C
As of 3:00 PM on Monday 20 Oct 2014 (Local Time) from SBRP Reporting Station
Broken Clouds Broken Clouds  
Wind Chill: 86°   Ceiling: 10000
Heat Index: 86°   Visibility: 6mi
Dew Point: 59°   Wind: 8mph
Humidity: 40%   Direction: 220°SW
Pressure: 29.91"   Gusts: NA
Location:  20.71°S, 47.89°W
Report Text: SBRP 201800Z 22007KT 9999 FEW045 BKN100 30/15 Q1013
Loading
Personal Weather Stations






























Interactive Weather Map
Tropical Storm Tracking
New forecast layout! Learn more

10-Day Weather Forecast

Advertisements
Track Severe Weather on mobile